Time;durP1;ratioP1;P1;durP2;ratioP2;P2;SDS_P1;SDS_P2;PMS_P1;PMS_P2;Temp;Humidity;BMP_temperature;BMP_pressure;BME280_temperature;BME280_humidity;BME280_pressure;Samples;Min_cycle;Max_cycle;Signal;HPM_P1;HPM_P2
2022/07/14 00:01:36;;;;;;;;;;;;;;;11.87;100.00;99872.91;6306169;22;19915;-84
2022/07/14 00:04:02;;;;;;;;;;;;;;;12.04;99.21;99862.38;6306772;22;19911;-84
2022/07/14 00:06:27;;;;;;;;;;;;;;;11.79;99.13;99863.50;6305188;22;19994;-84
2022/07/14 00:08:52;;;;;;;;;;;;;;;11.82;100.00;99866.03;6306429;22;20242;-83
2022/07/14 00:11:18;;;;;;;;;;;;;;;11.66;99.86;99866.78;6306621;22;20273;-84
2022/07/14 00:13:43;;;;;;;;;;;;;;;11.68;100.00;99867.56;6306177;22;19915;-84
2022/07/14 00:16:08;;;;;;;;;;;;;;;11.56;99.76;99869.00;6306437;22;19963;-84
2022/07/14 00:18:33;;;;;;;;;;;;;;;11.89;100.00;99871.06;6306469;22;19910;-84
2022/07/14 00:20:59;;;;;;;;;;;;;;;11.77;99.48;99861.84;6305007;22;19911;-84
2022/07/14 00:23:24;;;;;;;;;;;;;;;12.00;100.00;99863.47;6306377;22;19911;-84
2022/07/14 00:25:50;;;;;;;;;;;;;;;11.82;98.96;99866.03;6306444;22;19918;-84
2022/07/14 00:28:15;;;;;;;;;;;;;;;11.70;100.00;99866.59;6306313;22;19911;-84
2022/07/14 00:30:40;;;;;;;;;;;;;;;11.81;99.49;99872.25;6306193;22;20279;-84
2022/07/14 00:33:06;;;;;;;;;;;;;;;11.74;99.42;99868.19;6306223;22;19922;-84
2022/07/14 00:35:31;;;;;;;;;;;;;;;11.88;99.24;99869.31;6277770;22;19915;-84
2022/07/14 00:37:56;;;;;;;;;;;;;;;11.73;98.67;99863.78;6306231;22;19907;-84
2022/07/14 00:40:22;;;;;;;;;;;;;;;11.78;99.79;99864.44;6306488;22;19954;-84
2022/07/14 00:42:48;;;;;;;;;;;;;;;11.87;99.09;99862.28;6279174;22;19907;-84
2022/07/14 00:45:14;;;;;;;;;;;;;;;12.02;99.55;99853.63;6306419;22;19965;-84
2022/07/14 00:47:40;;;;;;;;;;;;;;;11.86;98.21;99852.59;6306480;22;19935;-83
2022/07/14 00:50:06;;;;;;;;;;;;;;;11.81;99.81;99852.81;6304719;22;20306;-84
2022/07/14 00:52:32;;;;;;;;;;;;;;;11.80;98.70;99851.94;6306529;22;19992;-84
2022/07/14 03:48:33;;;;;;;;;;;;;;;11.77;95.57;99824.69;6159728;22;19923;-92
2022/07/14 03:51:20;;;;;;;;;;;;;;;11.33;96.16;99828.47;6253896;22;20002;-93
2022/07/14 03:53:46;;;;;;;;;;;;;;;11.40;96.61;99821.94;6279058;22;19911;-92
2022/07/14 03:56:12;;;;;;;;;;;;;;;11.61;97.41;99820.09;6282307;22;19919;-88
2022/07/14 03:58:38;;;;;;;;;;;;;;;11.50;96.40;99816.22;6259085;22;19926;-94
2022/07/14 04:01:03;;;;;;;;;;;;;;;11.85;98.00;99822.53;6256340;22;19960;-92
2022/07/14 04:03:30;;;;;;;;;;;;;;;11.41;96.09;99822.81;6254081;22;19911;-94
2022/07/14 04:05:56;;;;;;;;;;;;;;;11.54;98.26;99818.66;6256547;22;19911;-95
2022/07/14 04:08:21;;;;;;;;;;;;;;;11.42;97.83;99821.88;6288070;22;19923;-96
2022/07/14 04:10:46;;;;;;;;;;;;;;;11.66;99.40;99816.38;6292082;22;19989;-96
2022/07/14 04:13:11;;;;;;;;;;;;;;;11.52;97.86;99811.69;6230872;23;19915;-92
2022/07/14 04:15:37;;;;;;;;;;;;;;;11.81;99.16;99813.84;6227535;23;19935;-93
2022/07/14 04:18:03;;;;;;;;;;;;;;;11.41;98.59;99812.22;6206355;23;19916;-91
2022/07/14 04:20:28;;;;;;;;;;;;;;;11.57;100.00;99815.03;6229838;23;19927;-95
2022/07/14 04:22:53;;;;;;;;;;;;;;;11.36;99.74;99808.88;6228877;23;19912;-88
2022/07/14 04:25:19;;;;;;;;;;;;;;;11.43;99.54;99810.34;6226895;23;20346;-93
2022/07/14 04:27:44;;;;;;;;;;;;;;;11.53;99.67;99811.63;6227527;23;19920;-95
2022/07/14 04:30:11;;;;;;;;;;;;;;;11.41;98.76;99812.22;6222247;23;20410;-93
2022/07/14 04:32:36;;;;;;;;;;;;;;;11.74;99.17;99816.88;6225985;23;19923;-96
2022/07/14 04:35:04;;;;;;;;;;;;;;;11.37;98.19;99814.13;6218084;23;19927;-96
2022/07/14 04:37:30;;;;;;;;;;;;;;;11.59;99.21;99811.34;6213484;23;19999;-92
2022/07/14 04:39:55;;;;;;;;;;;;;;;11.54;97.72;99823.97;6187460;23;19951;-93
2022/07/14 07:44:36;;;;;;;;;;;;;;;11.38;96.82;99765.44;6216089;22;19927;-88
2022/07/14 07:47:02;;;;;;;;;;;;;;;11.34;97.64;99763.84;6215472;23;19916;-86
2022/07/14 07:49:27;;;;;;;;;;;;;;;11.53;96.71;99769.16;6215163;23;20385;-89
2022/07/14 07:51:56;;;;;;;;;;;;;;;11.41;97.42;99760.00;6215654;23;19918;-90
2022/07/14 07:57:25;;;;;;;;;;;;;;;11.78;96.59;99752.94;6256722;22;19952;-88
2022/07/14 07:59:50;;;;;;;;;;;;;;;11.52;96.08;99751.53;6249018;22;19915;-89
2022/07/14 08:02:16;;;;;;;;;;;;;;;11.54;96.39;99754.13;6276183;22;20315;-88
2022/07/14 08:04:45;;;;;;;;;;;;;;;11.41;98.07;99754.69;6248670;22;19960;-88
2022/07/14 08:07:11;;;;;;;;;;;;;;;11.46;99.11;99749.19;6248290;22;20001;-89
2022/07/14 08:09:36;;;;;;;;;;;;;;;11.38;99.43;99738.91;6248622;22;19946;-88
2022/07/14 08:12:01;;;;;;;;;;;;;;;11.36;99.05;99740.78;6247355;22;19911;-89
2022/07/14 08:17:11;;;;;;;;;;;;;;;11.40;99.45;99734.41;6275833;22;19922;-93
2022/07/14 08:19:36;;;;;;;;;;;;;;;11.68;100.00;99737.53;6249035;22;19915;-91
2022/07/14 08:22:01;;;;;;;;;;;;;;;11.67;99.11;99741.97;6248893;22;19993;-92
2022/07/14 08:24:28;;;;;;;;;;;;;;;11.86;99.24;99747.25;6276046;22;19939;-90
2022/07/14 08:26:54;;;;;;;;;;;;;;;11.66;98.31;99737.59;6247438;22;19911;-88
2022/07/14 08:29:20;;;;;;;;;;;;;;;11.97;98.41;99733.50;6276263;22;19922;-89
2022/07/14 08:31:45;;;;;;;;;;;;;;;11.94;97.96;99729.19;6249153;22;20323;-92
2022/07/14 08:34:11;;;;;;;;;;;;;;;11.91;98.00;99729.31;6276194;22;19918;-92
2022/07/14 08:36:39;;;;;;;;;;;;;;;11.84;98.55;99724.38;6275706;22;19911;-88
2022/07/14 08:39:08;;;;;;;;;;;;;;;11.57;98.57;99719.50;6248986;22;20237;-92
2022/07/14 08:41:34;;;;;;;;;;;;;;;11.67;100.00;99722.56;6247237;22;19942;-92
2022/07/14 08:44:00;;;;;;;;;;;;;;;11.62;100.00;99717.47;6248804;22;19919;-88
2022/07/14 08:46:25;;;;;;;;;;;;;;;11.87;100.00;99718.91;6248390;22;19985;-93
2022/07/14 08:48:54;;;;;;;;;;;;;;;11.81;99.43;99720.09;6275667;22;19919;-91
2022/07/14 08:51:20;;;;;;;;;;;;;;;12.06;100.00;99716.22;6275520;22;19926;-89
2022/07/14 08:53:46;;;;;;;;;;;;;;;11.73;98.30;99709.00;6248538;22;19911;-94
2022/07/14 08:56:14;;;;;;;;;;;;;;;11.68;100.00;99711.88;6247380;22;20166;-88
2022/07/14 08:58:43;;;;;;;;;;;;;;;11.51;100.00;99704.72;6249288;22;19915;-90
2022/07/14 09:01:08;;;;;;;;;;;;;;;11.82;100.00;99711.16;6248961;22;19920;-92
2022/07/14 09:03:34;;;;;;;;;;;;;;;11.54;100.00;99707.22;6248592;22;20239;-87
2022/07/14 09:06:02;;;;;;;;;;;;;;;11.92;100.00;99701.00;6248632;22;20239;-88
2022/07/14 09:08:28;;;;;;;;;;;;;;;11.63;100.00;99705.91;6275545;22;19965;-90
2022/07/14 09:10:53;;;;;;;;;;;;;;;12.12;100.00;99711.47;6248819;22;19911;-92
2022/07/14 09:13:20;;;;;;;;;;;;;;;12.04;99.29;99700.38;6246737;22;19959;-88
2022/07/14 09:15:49;;;;;;;;;;;;;;;12.03;100.00;99695.13;6248480;22;19981;-90
2022/07/14 09:18:18;;;;;;;;;;;;;;;11.74;100.00;99693.00;6248588;22;19907;-90
2022/07/14 09:20:43;;;;;;;;;;;;;;;11.53;100.00;99686.06;6248637;22;19915;-87
2022/07/14 09:23:09;;;;;;;;;;;;;;;11.65;100.00;99674.84;6248718;22;20331;-87
2022/07/14 09:25:35;;;;;;;;;;;;;;;11.68;100.00;99677.38;6275758;22;19919;-88
2022/07/14 09:28:01;;;;;;;;;;;;;;;11.88;100.00;99676.34;6274361;22;19915;-89
2022/07/14 09:30:27;;;;;;;;;;;;;;;11.53;100.00;99673.66;6249276;22;20243;-91
2022/07/14 09:32:56;;;;;;;;;;;;;;;11.74;100.00;99666.44;6248304;22;19969;-88
2022/07/14 09:35:27;;;;;;;;;;;;;;;11.95;100.00;99674.28;6249202;22;19915;-91
2022/07/14 09:37:53;;;;;;;;;;;;;;;11.87;100.00;99674.66;6249425;22;19922;-93
2022/07/14 09:40:21;;;;;;;;;;;;;;;11.65;100.00;99666.91;6277338;22;19939;-91
2022/07/14 09:43:06;;;;;;;;;;;;;;;11.80;100.00;99666.13;6275563;22;20345;-89
2022/07/14 09:45:35;;;;;;;;;;;;;;;12.33;100.00;99663.50;6250380;22;20006;-90
2022/07/14 09:48:11;;;;;;;;;;;;;;;11.76;100.00;99667.22;6277412;22;20301;-89
2022/07/14 09:50:45;;;;;;;;;;;;;;;11.84;100.00;99658.88;6250644;22;20319;-88
2022/07/14 09:53:27;;;;;;;;;;;;;;;11.76;100.00;99653.94;6277603;22;19916;-92
2022/07/14 09:55:59;;;;;;;;;;;;;;;12.02;100.00;99649.16;6250091;22;20374;-89
2022/07/14 09:58:32;;;;;;;;;;;;;;;11.80;100.00;99649.34;6248574;22;19919;-90
2022/07/14 10:01:03;;;;;;;;;;;;;;;11.64;100.00;99639.47;6277191;22;19915;-88
2022/07/14 10:03:30;;;;;;;;;;;;;;;11.81;100.00;99641.31;6250050;22;20393;-92
2022/07/14 10:06:01;;;;;;;;;;;;;;;11.84;100.00;99636.75;6277562;22;19915;-89
2022/07/14 10:08:28;;;;;;;;;;;;;;;11.80;100.00;99631.59;6249410;22;19915;-94
2022/07/14 10:10:54;;;;;;;;;;;;;;;11.74;100.00;99636.38;6277822;22;19911;-89
2022/07/14 10:13:19;;;;;;;;;;;;;;;12.22;100.00;99629.53;6248521;22;19941;-90
2022/07/14 10:15:46;;;;;;;;;;;;;;;11.77;100.00;99622.94;6249798;22;20327;-92
2022/07/14 10:18:12;;;;;;;;;;;;;;;12.20;100.00;99620.78;6250086;22;19943;-92
2022/07/14 10:20:38;;;;;;;;;;;;;;;11.89;100.00;99624.13;6277034;22;19992;-93
2022/07/14 10:23:04;;;;;;;;;;;;;;;12.16;100.00;99617.44;6277450;22;19996;-93
2022/07/14 10:25:31;;;;;;;;;;;;;;;11.92;100.00;99618.72;6276779;22;19994;-94
2022/07/14 10:28:00;;;;;;;;;;;;;;;11.96;100.00;99628.22;6248318;22;19973;-94
2022/07/14 10:30:51;;;;;;;;;;;;;;;11.67;100.00;99625.22;6277116;22;19939;-92
2022/07/14 10:33:26;;;;;;;;;;;;;;;12.13;100.00;99622.06;6204100;22;20220;-89
2022/07/14 10:36:03;;;;;;;;;;;;;;;11.94;100.00;99625.63;6249937;22;20328;-91
2022/07/14 10:38:47;;;;;;;;;;;;;;;12.04;100.00;99615.41;6242945;23;19987;-88
2022/07/14 10:41:21;;;;;;;;;;;;;;;12.00;100.00;99616.50;6216795;23;19912;-89
2022/07/14 10:44:03;;;;;;;;;;;;;;;11.90;100.00;99608.13;6217690;23;19922;-94
2022/07/14 10:46:42;;;;;;;;;;;;;;;12.06;100.00;99610.88;6218046;23;19916;-90
2022/07/14 10:49:08;;;;;;;;;;;;;;;11.96;100.00;99607.81;6217722;22;19915;-87
2022/07/14 10:51:42;;;;;;;;;;;;;;;12.33;100.00;99610.38;6243118;23;19912;-89
2022/07/14 10:54:09;;;;;;;;;;;;;;;12.21;100.00;99609.22;6243007;23;19977;-92
2022/07/14 10:56:35;;;;;;;;;;;;;;;12.18;100.00;99612.03;6241475;22;20156;-90
2022/07/14 10:59:29;;;;;;;;;;;;;;;12.11;100.00;99618.59;6217992;23;19918;-92
2022/07/14 11:02:10;;;;;;;;;;;;;;;16.86;100.00;99595.69;6231793;22;19919;-90
2022/07/14 11:04:54;;;;;;;;;;;;;;;13.41;96.77;99601.81;6283124;22;19933;-89
2022/07/14 11:07:51;;;;;;;;;;;;;;;;;;;;;
2022/07/14 11:10:28;;;;;;;;;;;;;;;12.43;100.00;99611.59;6282010;22;20379;-89
2022/07/14 11:13:06;;;;;;;;;;;;;;;12.09;100.00;99618.66;6284956;22;19911;-91
2022/07/14 11:15:51;;;;;;;;;;;;;;;12.17;100.00;99613.84;6256925;22;19915;-89
2022/07/14 11:18:44;;;;;;;;;;;;;;;12.20;100.00;99617.28;6254323;22;19933;-89
2022/07/14 11:21:13;;;;;;;;;;;;;;;11.87;100.00;99610.06;6258210;22;19911;-94
2022/07/14 11:24:14;;;;;;;;;;;;;;;12.18;100.00;99612.88;6257735;22;20315;-89
2022/07/14 11:29:11;;;;;;;;;;;;;;;12.22;100.00;99616.25;6248074;23;19923;-92
2022/07/14 11:31:44;;;;;;;;;;;;;;;11.94;100.00;99607.06;6222401;23;19912;-91
2022/07/14 11:37:07;;;;;;;;;;;;;;;12.21;100.00;99605.72;6249795;23;19926;-90
2022/07/14 11:39:37;;;;;;;;;;;;;;;11.75;100.00;99609.75;6250657;23;20346;-92
2022/07/14 11:42:09;;;;;;;;;;;;;;;12.20;100.00;99604.84;6222627;23;20291;-90
2022/07/14 11:44:57;;;;;;;;;;;;;;;11.83;100.00;99601.41;6223841;23;20393;-89
2022/07/14 11:47:24;;;;;;;;;;;;;;;12.06;100.00;99612.66;6222033;23;19915;-92
2022/07/14 11:49:59;;;;;;;;;;;;;;;12.20;100.00;99611.97;6250090;23;19922;-88
2022/07/14 11:52:31;;;;;;;;;;;;;;;11.84;100.00;99618.19;6222655;23;19915;-88
2022/07/14 11:54:57;;;;;;;;;;;;;;;11.96;100.00;99613.13;6223401;23;19960;-91
2022/07/14 11:57:23;;;;;;;;;;;;;;;11.88;100.00;99609.13;6247482;23;19925;-93
2022/07/14 11:59:49;;;;;;;;;;;;;;;12.07;100.00;99607.28;6246277;23;19922;-91
2022/07/14 12:02:19;;;;;;;;;;;;;;;11.86;100.00;99609.22;6248314;23;19912;-88
2022/07/14 12:04:48;;;;;;;;;;;;;;;12.11;100.00;99600.00;6230286;22;19930;-87
2022/07/14 12:07:13;;;;;;;;;;;;;;;11.98;100.00;99600.66;6249325;22;19919;-89
2022/07/14 12:09:39;;;;;;;;;;;;;;;11.88;99.33;99598.50;6247769;22;19923;-91
2022/07/14 12:12:06;;;;;;;;;;;;;;;11.90;100.00;99592.19;6248125;22;19915;-89
2022/07/14 12:14:32;;;;;;;;;;;;;;;11.81;98.89;99588.22;6255513;22;19911;-92
2022/07/14 12:17:41;;;;;;;;;;;;;;;11.98;100.00;99581.19;6252350;22;20239;-91
2022/07/14 12:20:07;;;;;;;;;;;;;;;12.03;99.46;99579.19;6213986;23;19939;-93
2022/07/14 12:22:41;;;;;;;;;;;;;;;11.77;98.66;99569.84;6187887;23;19912;-92
2022/07/14 12:25:32;;;;;;;;;;;;;;;11.88;99.78;99569.31;6187050;23;19912;-88
2022/07/14 12:28:04;;;;;;;;;;;;;;;11.77;98.79;99565.41;6184774;23;19915;-94
2022/07/14 12:30:42;;;;;;;;;;;;;;;11.64;99.40;99572.28;6185436;23;19916;-89
2022/07/14 12:33:08;;;;;;;;;;;;;;;11.85;99.73;99561.50;6213873;23;19951;-92
2022/07/14 12:35:52;;;;;;;;;;;;;;;11.59;98.20;99566.34;6186839;23;19959;-89
2022/07/14 12:38:23;;;;;;;;;;;;;;;11.87;99.85;99571.13;6187682;23;19960;-88
2022/07/14 12:41:05;;;;;;;;;;;;;;;;;;;;;
2022/07/14 12:43:34;;;;;;;;;;;;;;;11.65;98.62;99560.75;6211052;23;20320;-89
2022/07/14 12:46:10;;;;;;;;;;;;;;;11.74;99.91;99554.09;6187823;23;19916;-89
2022/07/14 12:49:23;;;;;;;;;;;;;;;11.67;98.83;99564.16;6212945;23;19912;-88
2022/07/14 12:51:54;;;;;;;;;;;;;;;11.87;100.00;99549.00;6169661;23;19912;-90
2022/07/14 12:54:30;;;;;;;;;;;;;;;12.09;100.00;99557.59;6267332;22;19923;-89
2022/07/14 12:56:55;;;;;;;;;;;;;;;11.78;98.91;99551.19;6247525;22;19994;-90
2022/07/14 12:59:24;;;;;;;;;;;;;;;11.99;100.00;99553.72;6280796;22;20316;-87
2022/07/14 13:02:04;;;;;;;;;;;;;;;11.88;98.94;99556.03;6280201;22;19923;-89
2022/07/14 13:04:32;;;;;;;;;;;;;;;11.98;100.00;99551.97;6277840;22;20002;-89
2022/07/14 13:06:59;;;;;;;;;;;;;;;11.81;99.81;99551.03;6249496;22;20335;-95
2022/07/14 13:09:24;;;;;;;;;;;;;;;11.85;99.98;99550.88;6276235;22;20351;-89
2022/07/14 13:11:50;;;;;;;;;;;;;;;11.86;100.00;99545.50;6251087;22;19965;-90
2022/07/14 13:14:15;;;;;;;;;;;;;;;12.17;99.89;99551.88;6252840;22;20418;-91
2022/07/14 13:17:09;;;;;;;;;;;;;;;12.04;100.00;99545.50;6250579;22;19911;-89
2022/07/14 13:19:34;;;;;;;;;;;;;;;11.92;100.00;99545.22;6250802;22;19911;-89
2022/07/14 13:22:03;;;;;;;;;;;;;;;11.82;100.00;99542.16;6278039;22;19958;-90
2022/07/14 13:24:40;;;;;;;;;;;;;;;11.87;100.00;99538.38;6250480;22;19997;-91
2022/07/14 13:27:05;;;;;;;;;;;;;;;11.69;99.60;99535.75;6275128;22;19918;-89
2022/07/14 13:29:32;;;;;;;;;;;;;;;12.01;100.00;99533.25;6250033;22;19911;-90
2022/07/14 13:32:00;;;;;;;;;;;;;;;11.79;100.00;99534.34;6250887;22;19961;-89
2022/07/14 13:34:25;;;;;;;;;;;;;;;12.01;100.00;99527.94;6250372;22;19911;-90
2022/07/14 13:36:52;;;;;;;;;;;;;;;11.94;100.00;99531.88;6277514;22;20277;-89
2022/07/14 13:39:33;;;;;;;;;;;;;;;11.90;100.00;99525.84;6249098;22;19943;-90
2022/07/14 13:42:12;;;;;;;;;;;;;;;11.96;100.00;99532.63;6275779;22;19922;-89
2022/07/14 13:44:37;;;;;;;;;;;;;;;11.96;100.00;99532.63;6251864;22;20330;-92
2022/07/14 13:47:24;;;;;;;;;;;;;;;;;;;;;
2022/07/14 13:52:38;;;;;;;;;;;;;;;12.08;100.00;99529.34;6249168;22;19911;-88
2022/07/14 13:55:07;;;;;;;;;;;;;;;12.06;100.00;99517.94;6250372;22;19977;-92
2022/07/14 13:57:33;;;;;;;;;;;;;;;11.84;100.00;99514.66;6246702;22;20366;-90
2022/07/14 13:59:58;;;;;;;;;;;;;;;12.03;100.00;99520.75;6249797;22;19911;-91
2022/07/14 14:02:23;;;;;;;;;;;;;;;11.88;100.00;99516.22;6250308;22;19973;-92
2022/07/14 14:05:13;;;;;;;;;;;;;;;12.06;100.00;99520.59;6277387;22;19933;-94
2022/07/14 14:07:39;;;;;;;;;;;;;;;11.94;100.00;99518.59;6278146;22;19965;-89
2022/07/14 14:10:24;;;;;;;;;;;;;;;12.22;100.00;99527.72;6277005;22;19911;-88
2022/07/14 14:12:51;;;;;;;;;;;;;;;12.02;100.00;99520.84;6249948;22;20362;-87
2022/07/14 14:15:16;;;;;;;;;;;;;;;11.95;99.94;99514.97;6251554;22;19989;-89
2022/07/14 14:17:41;;;;;;;;;;;;;;;12.06;100.00;99509.97;6250066;22;19947;-90
2022/07/14 14:20:10;;;;;;;;;;;;;;;12.03;100.00;99512.78;6250352;22;20379;-94
2022/07/14 14:22:35;;;;;;;;;;;;;;;12.27;100.00;99499.09;6249534;22;19986;-92
2022/07/14 14:25:00;;;;;;;;;;;;;;;12.20;100.00;99505.72;6276934;22;19969;-89
2022/07/14 14:27:26;;;;;;;;;;;;;;;12.09;100.00;99501.81;6248917;22;19923;-90
2022/07/14 14:29:52;;;;;;;;;;;;;;;11.90;100.00;99511.69;6276791;22;19911;-87
2022/07/14 14:32:17;;;;;;;;;;;;;;;11.98;100.00;99512.16;6277797;22;19915;-91
2022/07/14 14:34:42;;;;;;;;;;;;;;;12.08;100.00;99509.91;6250414;22;19965;-90
2022/07/14 14:37:08;;;;;;;;;;;;;;;11.92;100.00;99523.13;6250018;22;19915;-91
2022/07/14 14:39:34;;;;;;;;;;;;;;;12.19;100.00;99507.53;6249669;22;19937;-91
2022/07/14 14:42:01;;;;;;;;;;;;;;;11.91;100.00;99518.72;6275744;22;19911;-92
2022/07/14 14:44:26;;;;;;;;;;;;;;;12.15;100.00;99517.44;6250332;22;19938;-91
2022/07/14 14:46:58;;;;;;;;;;;;;;;11.80;100.00;99527.22;6250173;22;20312;-92
2022/07/14 14:50:09;;;;;;;;;;;;;;;;;;;;;
2022/07/14 14:52:36;;;;;;;;;;;;;;;11.97;100.00;99544.97;6261217;22;20001;-91
2022/07/14 14:57:38;;;;;;;;;;;;;;;11.96;100.00;99536.13;6232961;22;19934;-92
2022/07/14 15:00:12;;;;;;;;;;;;;;;11.81;99.00;99545.72;6249121;22;19922;-91
2022/07/14 15:02:38;;;;;;;;;;;;;;;11.96;99.92;99543.25;6249479;22;19911;-90
2022/07/14 15:07:39;;;;;;;;;;;;;;;11.86;97.81;99536.69;6245002;23;19919;-90
2022/07/14 15:13:28;;;;;;;;;;;;;;;11.87;97.00;99559.63;6178442;23;20276;-89
2022/07/14 15:18:37;;;;;;;;;;;;;;;11.93;97.52;99575.28;6226654;22;19924;-90
2022/07/14 15:21:03;;;;;;;;;;;;;;;11.79;96.27;99582.13;6243786;23;20212;-92
2022/07/14 15:23:38;;;;;;;;;;;;;;;11.94;97.63;99587.63;6244754;23;19915;-91
2022/07/14 15:26:03;;;;;;;;;;;;;;;11.75;95.60;99582.34;6244777;23;19923;-90
2022/07/14 15:28:51;;;;;;;;;;;;;;;11.67;96.70;99597.81;6243931;23;19915;-89
2022/07/14 15:31:17;;;;;;;;;;;;;;;11.87;97.00;99591.47;6246239;22;19919;-89
2022/07/14 15:33:42;;;;;;;;;;;;;;;11.60;95.17;99599.94;6254338;22;19942;-90
2022/07/14 15:36:56;;;;;;;;;;;;;;;;;;;;;
2022/07/14 15:42:06;;;;;;;;;;;;;;;11.71;95.21;99602.91;6276287;22;19918;-90
2022/07/14 15:44:38;;;;;;;;;;;;;;;12.00;96.80;99605.91;6249664;22;19912;-92
2022/07/14 15:47:04;;;;;;;;;;;;;;;11.80;95.60;99604.22;6279668;22;19937;-87
2022/07/14 15:49:30;;;;;;;;;;;;;;;11.68;94.97;99603.06;6251297;22;19916;-93
2022/07/14 15:51:56;;;;;;;;;;;;;;;11.90;96.25;99600.16;6251253;22;19918;-89
2022/07/14 15:54:21;;;;;;;;;;;;;;;11.80;93.61;99597.09;6276634;22;19911;-88
2022/07/14 15:57:02;;;;;;;;;;;;;;;11.87;95.87;99587.06;6241160;22;19919;-92
2022/07/14 15:59:30;;;;;;;;;;;;;;;11.74;96.05;99593.91;6250276;22;20297;-91
2022/07/14 16:01:56;;;;;;;;;;;;;;;11.69;95.52;99593.28;6249938;22;19918;-90
2022/07/14 16:04:21;;;;;;;;;;;;;;;11.71;96.73;99592.28;6248773;22;20250;-91
2022/07/14 16:06:47;;;;;;;;;;;;;;;11.54;95.68;99584.31;6246152;22;19911;-90
2022/07/14 16:09:12;;;;;;;;;;;;;;;11.84;97.76;99586.31;6249807;22;20369;-90
2022/07/14 16:11:38;;;;;;;;;;;;;;;11.56;95.72;99582.44;6248893;22;20262;-89
2022/07/14 16:14:03;;;;;;;;;;;;;;;11.74;97.37;99580.63;6249289;22;19990;-91
2022/07/14 16:16:28;;;;;;;;;;;;;;;11.78;96.11;99583.06;6276369;22;20282;-89
2022/07/14 16:19:26;;;;;;;;;;;;;;;11.66;95.90;99575.72;6249095;22;19911;-91
2022/07/14 16:27:25;;;;;;;;;;;;;;;11.49;95.75;99587.19;6262838;22;19954;-90
2022/07/14 16:29:51;;;;;;;;;;;;;;;11.81;96.56;99582.91;6247909;22;19931;-91
2022/07/14 16:32:16;;;;;;;;;;;;;;;11.50;95.08;99580.06;6248095;22;19922;-91
2022/07/14 16:37:48;;;;;;;;;;;;;;;11.52;96.29;99586.16;6182548;23;19979;-87
2022/07/14 16:43:33;;;;;;;;;;;;;;;11.71;97.09;99589.63;6180292;23;20027;-88
2022/07/14 16:49:15;;;;;;;;;;;;;;;11.66;95.79;99583.66;6276828;22;19947;-89
2022/07/14 16:52:13;;;;;;;;;;;;;;;11.55;96.87;99586.00;6125106;23;19917;-90
2022/07/14 16:54:38;;;;;;;;;;;;;;;11.53;95.65;99591.38;6077582;23;19940;-89
2022/07/14 17:00:26;;;;;;;;;;;;;;;11.67;95.76;99590.69;6214097;23;20332;-92
2022/07/14 17:03:23;;;;;;;;;;;;;;;11.68;95.32;99592.44;6187964;23;19919;-88
2022/07/14 17:08:55;;;;;;;;;;;;;;;11.69;96.62;99602.09;6276888;22;19917;-96
2022/07/14 17:11:21;;;;;;;;;;;;;;;11.64;95.10;99601.47;6249586;22;19907;-91
2022/07/14 17:13:47;;;;;;;;;;;;;;;11.53;94.90;99603.81;6250311;22;19917;-93
2022/07/14 17:21:34;;;;;;;;;;;;;;;11.57;96.82;99598.28;6195519;22;19923;-91
2022/07/14 17:24:00;;;;;;;;;;;;;;;11.46;95.19;99600.59;6276994;22;20285;-89
2022/07/14 17:29:46;;;;;;;;;;;;;;;11.75;96.89;99622.19;6205555;22;19938;-90
2022/07/14 17:32:38;;;;;;;;;;;;;;;11.60;95.71;99607.88;6251331;22;19922;-90
2022/07/14 17:35:04;;;;;;;;;;;;;;;11.60;95.59;99606.09;6251010;22;19915;-91
2022/07/14 17:37:29;;;;;;;;;;;;;;;11.57;96.53;99618.66;6277648;22;19911;-92
2022/07/14 17:39:55;;;;;;;;;;;;;;;11.32;95.28;99613.69;6250982;22;19912;-92
2022/07/14 17:42:20;;;;;;;;;;;;;;;11.74;97.69;99621.31;6276993;22;19922;-90
2022/07/14 17:44:45;;;;;;;;;;;;;;;11.45;96.06;99615.69;6278470;22;20373;-92
2022/07/14 17:47:11;;;;;;;;;;;;;;;11.74;97.81;99621.31;6251077;22;19915;-89
2022/07/14 17:49:36;;;;;;;;;;;;;;;11.52;96.95;99626.84;6250574;22;19918;-89
2022/07/14 17:55:19;;;;;;;;;;;;;;;11.82;96.91;99634.19;6122096;22;20466;-92
2022/07/14 17:58:13;;;;;;;;;;;;;;;11.51;95.85;99642.84;6250835;22;19917;-94
2022/07/14 18:00:38;;;;;;;;;;;;;;;11.48;95.80;99642.97;6250913;22;20326;-92
2022/07/14 18:03:03;;;;;;;;;;;;;;;17.47;82.27;99629.66;6251783;22;19915;-89
2022/07/14 18:09:09;;;;;;;;;;;;;;;11.96;96.46;99654.78;6236890;22;19927;-89
2022/07/14 18:11:15;;;;;;;;;;;;;;;12.06;100.00;99660.47;6231259;23;19912;-90
2022/07/14 18:13:40;;;;;;;;;;;;;;;11.88;99.07;99662.22;6220766;23;20054;-91
2022/07/14 18:16:06;;;;;;;;;;;;;;;11.68;99.70;99663.22;6220144;23;20128;-87
2022/07/14 18:21:43;;;;;;;;;;;;;;;11.60;98.17;99672.44;6189586;23;19970;-87
2022/07/14 18:24:09;;;;;;;;;;;;;;;11.61;98.71;99675.94;6246131;23;19915;-88
2022/07/14 18:26:38;;;;;;;;;;;;;;;11.65;97.96;99677.50;6219677;23;20006;-89
2022/07/14 18:29:04;;;;;;;;;;;;;;;11.56;96.94;99683.25;6220908;23;19918;-90
2022/07/14 18:38:01;;;;;;;;;;;;;;;11.39;97.94;99698.22;6278176;22;20006;-92
2022/07/14 18:40:56;;;;;;;;;;;;;;;11.56;99.64;99704.50;6249297;22;19919;-91
2022/07/14 18:43:21;;;;;;;;;;;;;;;11.38;98.60;99709.75;6180530;23;19915;-89
2022/07/14 18:50:58;;;;;;;;;;;;;;;11.59;96.10;99714.97;6244078;22;19920;-93
2022/07/14 18:53:23;;;;;;;;;;;;;;;11.65;97.67;99722.63;6245320;23;19915;-92
2022/07/14 18:55:52;;;;;;;;;;;;;;;11.50;96.66;99724.19;6244222;22;19923;-90
2022/07/14 18:58:17;;;;;;;;;;;;;;;11.48;95.81;99726.06;6248828;22;19919;-93
2022/07/14 19:00:42;;;;;;;;;;;;;;;11.54;96.79;99727.59;6250459;22;19942;-91
2022/07/14 19:03:07;;;;;;;;;;;;;;;11.37;95.98;99742.50;6250802;22;19915;-88
2022/07/14 19:05:33;;;;;;;;;;;;;;;11.48;98.01;99746.44;6251162;22;19915;-94
2022/07/14 19:08:01;;;;;;;;;;;;;;;11.43;96.95;99744.88;6224598;22;19927;-92
2022/07/14 19:10:28;;;;;;;;;;;;;;;11.47;97.94;99756.19;6250339;22;19911;-94
2022/07/14 19:12:56;;;;;;;;;;;;;;;11.48;96.71;99762.38;6250092;22;19907;-89
2022/07/14 19:15:21;;;;;;;;;;;;;;;11.33;96.82;99756.84;6276627;22;20239;-91
2022/07/14 19:17:47;;;;;;;;;;;;;;;11.52;97.58;99766.59;6235103;23;19923;-90
2022/07/14 19:20:44;;;;;;;;;;;;;;;11.62;95.89;99768.75;6245245;23;19961;-91
2022/07/14 19:26:13;;;;;;;;;;;;;;;11.44;96.60;99775.78;6245247;22;19915;-94
2022/07/14 19:28:57;;;;;;;;;;;;;;;11.57;95.37;99780.53;6244361;23;19922;-94
2022/07/14 19:31:22;;;;;;;;;;;;;;;11.53;96.31;99782.44;6240859;22;20339;-88
2022/07/14 19:34:29;;;;;;;;;;;;;;;11.34;95.58;99795.69;6244731;23;19918;-91
2022/07/14 19:36:54;;;;;;;;;;;;;;;11.11;95.62;99793.25;6228885;23;20046;-90
2022/07/14 19:41:55;;;;;;;;;;;;;;;11.36;95.51;99799.16;6269061;22;19919;-89
2022/07/14 19:44:20;;;;;;;;;;;;;;;11.25;96.56;99804.09;6250028;22;20337;-90
2022/07/14 19:46:45;;;;;;;;;;;;;;;11.15;95.91;99816.03;6238625;22;19919;-90
2022/07/14 19:49:11;;;;;;;;;;;;;;;10.99;95.17;99819.38;6249249;22;19915;-91
2022/07/14 19:51:36;;;;;;;;;;;;;;;11.25;96.27;99820.00;6248772;22;19921;-91
2022/07/14 19:54:31;;;;;;;;;;;;;;;11.03;94.49;99823.59;6248270;22;19911;-87
2022/07/14 19:56:58;;;;;;;;;;;;;;;11.05;95.95;99836.78;6222858;22;19911;-88
2022/07/14 19:59:24;;;;;;;;;;;;;;;11.11;95.20;99838.31;6276402;22;20343;-92
2022/07/14 20:01:56;;;;;;;;;;;;;;;11.09;94.41;99839.25;6249310;22;19911;-90
2022/07/14 20:04:22;;;;;;;;;;;;;;;11.21;95.18;99848.44;6249536;22;19938;-90
2022/07/14 20:06:48;;;;;;;;;;;;;;;11.12;93.53;99848.88;6276115;22;20311;-91
2022/07/14 20:09:14;;;;;;;;;;;;;;;11.19;95.20;99849.44;6276359;22;20285;-90
2022/07/14 20:11:40;;;;;;;;;;;;;;;11.00;93.78;99858.19;6268031;22;19919;-90
2022/07/14 20:14:11;;;;;;;;;;;;;;;11.05;93.71;99856.19;6249085;22;19915;-87
2022/07/14 20:16:47;;;;;;;;;;;;;;;11.05;94.97;99864.16;6249019;22;20342;-88
2022/07/14 20:22:19;;;;;;;;;;;;;;;10.97;95.14;99866.28;6257897;22;19927;-88
2022/07/14 20:25:03;;;;;;;;;;;;;;;11.10;95.23;99869.25;6244659;23;19911;-89
2022/07/14 20:33:19;;;;;;;;;;;;;;;10.88;95.82;99888.75;6245105;22;19969;-88